^^
Saratoga-Weather Station Historical Data
Daily Summary for February 14, 2020 Units:  Both    English   Metric
Daily Weekly Monthly Yearly Custom
  High: Low: Average:
Temperature: 69.4 °F /  20.8 °C 58.5 °F /  14.7 °C 63.5 °F /  17.5 °C
Dew Point: 59.7 °F /  15.4 °C 55.4 °F /  13 °C 57.4 °F /  14.1 °C
Humidity: 96% 66% 81%
Wind Speed: 16mph /  25.7km/h - 3.3mph /  5.3km/h
Wind Gust: 16mph /  25.7km/h - -
Wind- - West
Pressure: 30 in /  1016.3 hPa 29.9 in /  1012.5 hPa -
Precipitation: 0 in /  0.0 mm    
Historical Graphs
 
 
Tabular Data for February 14, 2020
Time Temperature Dew Point Pressure Wind Wind Speed Wind Gust Humidity Rainfall Rate (Hourly) solar
00:03 58.6 °F /  14.8 °C 57.2 °F /  14 °C 29.9in /  1012.5hPa Calm     95% 0in /  0.0mm 0 W/m2
00:08 58.6 °F /  14.8 °C 57.2 °F /  14 °C 29.9in /  1012.5hPa Calm     95% 0in /  0.0mm 0 W/m2
00:13 58.6 °F /  14.8 °C 57.2 °F /  14 °C 29.9in /  1012.5hPa Calm     95% 0in /  0.0mm 0 W/m2
00:18 58.6 °F /  14.8 °C 57.6 °F /  14.2 °C 29.9in /  1012.5hPa Calm     96% 0in /  0.0mm 0 W/m2
00:23 58.6 °F /  14.8 °C 57.6 °F /  14.2 °C 29.9in /  1012.5hPa Calm     96% 0in /  0.0mm 0 W/m2
00:28 58.5 °F /  14.7 °C 57.4 °F /  14.1 °C 29.9in /  1012.5hPa Calm     96% 0in /  0.0mm 0 W/m2
00:33 58.5 °F /  14.7 °C 57.4 °F /  14.1 °C 29.9in /  1012.5hPa Calm     96% 0in /  0.0mm 0 W/m2
00:39 58.6 °F /  14.8 °C 57.6 °F /  14.2 °C 29.9in /  1012.5hPa Calm     96% 0in /  0.0mm 0 W/m2
00:44 58.6 °F /  14.8 °C 57.6 °F /  14.2 °C 29.9in /  1012.5hPa West 2.9mph /  4.7km/h 4mph /  6.4km/h 96% 0in /  0.0mm 0 W/m2
00:49 59.2 °F /  15.1 °C 58.1 °F /  14.5 °C 29.9in /  1012.5hPa Calm     96% 0in /  0.0mm 0 W/m2
00:54 59.5 °F /  15.3 °C 58.5 °F /  14.7 °C 29.9in /  1012.5hPa West 0.9mph /  1.4km/h 4mph /  6.4km/h 96% 0in /  0.0mm 0 W/m2
00:59 60.1 °F /  15.6 °C 59 °F /  15 °C 29.9in /  1012.5hPa West 2.9mph /  4.7km/h 3mph /  4.8km/h 96% 0in /  0.0mm 0 W/m2
01:04 60.3 °F /  15.7 °C 59.2 °F /  15.1 °C 29.9in /  1012.5hPa SSW 0.9mph /  1.4km/h 7mph /  11.3km/h 96% 0in /  0.0mm 0 W/m2
01:09 60.4 °F /  15.8 °C 59.4 °F /  15.2 °C 29.9in /  1012.5hPa Calm   2mph /  3.2km/h 96% 0in /  0.0mm 0 W/m2
01:14 60.6 °F /  15.9 °C 59.5 °F /  15.3 °C 29.9in /  1012.5hPa WNW 6mph /  9.7km/h 6mph /  9.7km/h 96% 0in /  0.0mm 0 W/m2
01:19 60.8 °F /  16 °C 59.4 °F /  15.2 °C 29.9in /  1012.5hPa West 2mph /  3.2km/h 4mph /  6.4km/h 95% 0in /  0.0mm 0 W/m2
01:24 61 °F /  16.1 °C 59.5 °F /  15.3 °C 29.9in /  1012.5hPa NE 0.9mph /  1.4km/h 3mph /  4.8km/h 95% 0in /  0.0mm 0 W/m2
01:29 61.2 °F /  16.2 °C 59.4 °F /  15.2 °C 29.9in /  1012.5hPa WSW 0.9mph /  1.4km/h 3mph /  4.8km/h 94% 0in /  0.0mm 0 W/m2
01:34 61.3 °F /  16.3 °C 59.5 °F /  15.3 °C 29.9in /  1012.5hPa WNW 0.9mph /  1.4km/h 4mph /  6.4km/h 94% 0in /  0.0mm 0 W/m2
01:39 61.5 °F /  16.4 °C 59.5 °F /  15.3 °C 29.9in /  1012.5hPa NNW 2mph /  3.2km/h 2mph /  3.2km/h 93% 0in /  0.0mm 0 W/m2
01:44 61.7 °F /  16.5 °C 59.7 °F /  15.4 °C 29.9in /  1012.5hPa WSW 0.9mph /  1.4km/h 2mph /  3.2km/h 93% 0in /  0.0mm 0 W/m2
01:49 61.7 °F /  16.5 °C 59.4 °F /  15.2 °C 29.9in /  1012.5hPa NW 0.9mph /  1.4km/h 1mph /  1.6km/h 92% 0in /  0.0mm 0 W/m2
01:54 61.7 °F /  16.5 °C 59.4 °F /  15.2 °C 29.9in /  1012.5hPa Calm   1mph /  1.6km/h 92% 0in /  0.0mm 0 W/m2
01:59 61.5 °F /  16.4 °C 59.2 °F /  15.1 °C 29.9in /  1012.5hPa NW 0.9mph /  1.4km/h 1mph /  1.6km/h 92% 0in /  0.0mm 0 W/m2
02:04 61.5 °F /  16.4 °C 59.2 °F /  15.1 °C 29.9in /  1012.5hPa WNW 2mph /  3.2km/h 3mph /  4.8km/h 92% 0in /  0.0mm 0 W/m2
02:09 61.5 °F /  16.4 °C 59.2 °F /  15.1 °C 29.9in /  1012.9hPa West 2mph /  3.2km/h 3mph /  4.8km/h 92% 0in /  0.0mm 0 W/m2
02:14 61.5 °F /  16.4 °C 59.2 °F /  15.1 °C 29.9in /  1012.9hPa NE 0.9mph /  1.4km/h 2mph /  3.2km/h 92% 0in /  0.0mm 0 W/m2
02:19 61.3 °F /  16.3 °C 59 °F /  15 °C 29.9in /  1012.9hPa Calm   1mph /  1.6km/h 92% 0in /  0.0mm 0 W/m2
02:24 61.3 °F /  16.3 °C 59 °F /  15 °C 29.9in /  1012.9hPa Calm     92% 0in /  0.0mm 0 W/m2
02:29 61.2 °F /  16.2 °C 59.2 °F /  15.1 °C 29.9in /  1012.9hPa WSW 0.9mph /  1.4km/h 2mph /  3.2km/h 93% 0in /  0.0mm 0 W/m2
02:34 61 °F /  16.1 °C 59 °F /  15 °C 29.9in /  1012.9hPa Calm     93% 0in /  0.0mm 0 W/m2
02:39 61 °F /  16.1 °C 59 °F /  15 °C 29.9in /  1012.9hPa West 0.9mph /  1.4km/h 3mph /  4.8km/h 93% 0in /  0.0mm 0 W/m2
02:44 61 °F /  16.1 °C 59 °F /  15 °C 29.9in /  1012.9hPa WNW 0.9mph /  1.4km/h 3mph /  4.8km/h 93% 0in /  0.0mm 0 W/m2
02:50 61.2 °F /  16.2 °C 59.2 °F /  15.1 °C 29.9in /  1012.9hPa West 2.9mph /  4.7km/h 3mph /  4.8km/h 93% 0in /  0.0mm 0 W/m2
02:55 61.2 °F /  16.2 °C 59.2 °F /  15.1 °C 29.9in /  1012.9hPa WNW 2.9mph /  4.7km/h 4mph /  6.4km/h 93% 0in /  0.0mm 0 W/m2
03:00 61.2 °F /  16.2 °C 59.2 °F /  15.1 °C 29.9in /  1012.9hPa West 2mph /  3.2km/h 4mph /  6.4km/h 93% 0in /  0.0mm 0 W/m2
03:05 61.3 °F /  16.3 °C 59.4 °F /  15.2 °C 29.9in /  1012.9hPa West 2mph /  3.2km/h 3mph /  4.8km/h 93% 0in /  0.0mm 0 W/m2
03:10 61.3 °F /  16.3 °C 59 °F /  15 °C 29.9in /  1012.9hPa West 6mph /  9.7km/h 6mph /  9.7km/h 92% 0in /  0.0mm 0 W/m2
03:15 61.5 °F /  16.4 °C 59.2 °F /  15.1 °C 29.9in /  1012.9hPa WSW 2.9mph /  4.7km/h 4mph /  6.4km/h 92% 0in /  0.0mm 0 W/m2
03:20 61.5 °F /  16.4 °C 58.8 °F /  14.9 °C 29.9in /  1012.9hPa West 4mph /  6.4km/h 7mph /  11.3km/h 91% 0in /  0.0mm 0 W/m2
03:25 61.7 °F /  16.5 °C 59 °F /  15 °C 29.9in /  1012.9hPa SSW 4mph /  6.4km/h 5mph /  8km/h 91% 0in /  0.0mm 0 W/m2
03:30 61.5 °F /  16.4 °C 58.8 °F /  14.9 °C 29.9in /  1012.9hPa WNW 2mph /  3.2km/h 8mph /  12.9km/h 91% 0in /  0.0mm 0 W/m2
03:35 61.7 °F /  16.5 °C 59 °F /  15 °C 29.9in /  1012.9hPa SSW 4mph /  6.4km/h 9mph /  14.5km/h 91% 0in /  0.0mm 0 W/m2
03:40 61.7 °F /  16.5 °C 58.8 °F /  14.9 °C 29.9in /  1012.9hPa West 8.1mph /  13km/h 12mph /  19.3km/h 90% 0in /  0.0mm 0 W/m2
03:45 61.9 °F /  16.6 °C 59 °F /  15 °C 29.9in /  1012.9hPa WSW 12.1mph /  19.5km/h 12mph /  19.3km/h 90% 0in /  0.0mm 0 W/m2
03:50 61.9 °F /  16.6 °C 58.6 °F /  14.8 °C 29.9in /  1012.9hPa WNW 4.9mph /  7.9km/h 10mph /  16.1km/h 89% 0in /  0.0mm 0 W/m2
03:55 61.9 °F /  16.6 °C 58.6 °F /  14.8 °C 29.9in /  1012.9hPa SW 4mph /  6.4km/h 6mph /  9.7km/h 89% 0in /  0.0mm 0 W/m2
04:00 61.7 °F /  16.5 °C 58.1 °F /  14.5 °C 29.9in /  1012.9hPa WNW 8.1mph /  13km/h 10mph /  16.1km/h 88% 0in /  0.0mm 0 W/m2
04:10 61.7 °F /  16.5 °C 57.7 °F /  14.3 °C 29.9in /  1012.9hPa West 6mph /  9.7km/h 12mph /  19.3km/h 87% 0in /  0.0mm 0 W/m2
04:15 61.5 °F /  16.4 °C 57.6 °F /  14.2 °C 29.9in /  1012.9hPa West 11mph /  17.7km/h 14mph /  22.5km/h 87% 0in /  0.0mm 0 W/m2
04:20 61.5 °F /  16.4 °C 57.9 °F /  14.4 °C 29.9in /  1012.9hPa SW 4.9mph /  7.9km/h 11mph /  17.7km/h 88% 0in /  0.0mm 0 W/m2
04:25 61.3 °F /  16.3 °C 57.7 °F /  14.3 °C 29.9in /  1012.5hPa West 6mph /  9.7km/h 9mph /  14.5km/h 88% 0in /  0.0mm 0 W/m2
04:30 61.2 °F /  16.2 °C 57.6 °F /  14.2 °C 29.9in /  1012.9hPa West 12.1mph /  19.5km/h 15mph /  24.1km/h 88% 0in /  0.0mm 0 W/m2
04:35 61.2 °F /  16.2 °C 57.2 °F /  14 °C 29.9in /  1012.9hPa WSW 10.1mph /  16.3km/h 10mph /  16.1km/h 87% 0in /  0.0mm 0 W/m2
04:40 61 °F /  16.1 °C 57 °F /  13.9 °C 29.9in /  1012.9hPa West 6.9mph /  11.1km/h 10mph /  16.1km/h 87% 0in /  0.0mm 0 W/m2
04:45 61 °F /  16.1 °C 57 °F /  13.9 °C 29.9in /  1012.9hPa WNW 10.1mph /  16.3km/h 15mph /  24.1km/h 87% 0in /  0.0mm 0 W/m2
04:50 60.8 °F /  16 °C 56.8 °F /  13.8 °C 29.9in /  1012.9hPa NW 4.9mph /  7.9km/h 12mph /  19.3km/h 87% 0in /  0.0mm 0 W/m2
04:55 60.6 °F /  15.9 °C 56.7 °F /  13.7 °C 29.9in /  1012.9hPa WNW 4.9mph /  7.9km/h 11mph /  17.7km/h 87% 0in /  0.0mm 0 W/m2
05:00 60.6 °F /  15.9 °C 56.7 °F /  13.7 °C 29.9in /  1012.9hPa West 6.9mph /  11.1km/h 10mph /  16.1km/h 87% 0in /  0.0mm 0 W/m2
05:05 60.4 °F /  15.8 °C 56.5 °F /  13.6 °C 29.9in /  1012.9hPa West 6.9mph /  11.1km/h 15mph /  24.1km/h 87% 0in /  0.0mm 0 W/m2
05:10 60.4 °F /  15.8 °C 56.5 °F /  13.6 °C 29.9in /  1012.9hPa WNW 4mph /  6.4km/h 9mph /  14.5km/h 87% 0in /  0.0mm 0 W/m2
05:15 60.3 °F /  15.7 °C 56.1 °F /  13.4 °C 29.9in /  1012.9hPa NW 10.1mph /  16.3km/h 10mph /  16.1km/h 86% 0in /  0.0mm 0 W/m2
05:20 60.3 °F /  15.7 °C 56.3 °F /  13.5 °C 29.9in /  1012.9hPa West 11mph /  17.7km/h 14mph /  22.5km/h 87% 0in /  0.0mm 0 W/m2
05:25 60.1 °F /  15.6 °C 56.1 °F /  13.4 °C 29.9in /  1012.9hPa WNW 4.9mph /  7.9km/h 8mph /  12.9km/h 87% 0in /  0.0mm 0 W/m2
05:30 60.1 °F /  15.6 °C 56.1 °F /  13.4 °C 29.9in /  1012.9hPa WSW 4.9mph /  7.9km/h 14mph /  22.5km/h 87% 0in /  0.0mm 0 W/m2
05:36 60.1 °F /  15.6 °C 55.9 °F /  13.3 °C 29.9in /  1012.9hPa WSW 14.1mph /  22.7km/h 14mph /  22.5km/h 86% 0in /  0.0mm 0 W/m2
05:41 60.1 °F /  15.6 °C 56.1 °F /  13.4 °C 29.9in /  1013.2hPa West 6mph /  9.7km/h 10mph /  16.1km/h 87% 0in /  0.0mm 0 W/m2
05:46 59.7 °F /  15.4 °C 55.8 °F /  13.2 °C 29.9in /  1013.2hPa WSW 16mph /  25.7km/h 16mph /  25.7km/h 87% 0in /  0.0mm 5 W/m2
05:51 59.7 °F /  15.4 °C 55.8 °F /  13.2 °C 29.9in /  1013.2hPa West 10.1mph /  16.3km/h 11mph /  17.7km/h 87% 0in /  0.0mm 7 W/m2
05:56 59.7 °F /  15.4 °C 55.8 °F /  13.2 °C 29.9in /  1013.2hPa West 8.9mph /  14.3km/h 12mph /  19.3km/h 87% 0in /  0.0mm 9 W/m2
06:01 59.5 °F /  15.3 °C 55.6 °F /  13.1 °C 29.9in /  1013.2hPa WSW 13mph /  20.9km/h 13mph /  20.9km/h 87% 0in /  0.0mm 12 W/m2
06:06 59.5 °F /  15.3 °C 55.6 °F /  13.1 °C 29.9in /  1013.2hPa WNW 4.9mph /  7.9km/h 12mph /  19.3km/h 87% 0in /  0.0mm 14 W/m2
06:11 59.5 °F /  15.3 °C 55.6 °F /  13.1 °C 29.9in /  1013.2hPa WSW 8.1mph /  13km/h 12mph /  19.3km/h 87% 0in /  0.0mm 16 W/m2
06:16 59.5 °F /  15.3 °C 55.6 °F /  13.1 °C 29.9in /  1012.9hPa NW 4.9mph /  7.9km/h 9mph /  14.5km/h 87% 0in /  0.0mm 19 W/m2
06:21 59.4 °F /  15.2 °C 55.4 °F /  13 °C 29.9in /  1012.9hPa SW 8.9mph /  14.3km/h 12mph /  19.3km/h 87% 0in /  0.0mm 21 W/m2
06:26 59.4 °F /  15.2 °C 55.4 °F /  13 °C 29.9in /  1013.2hPa WNW 4mph /  6.4km/h 12mph /  19.3km/h 87% 0in /  0.0mm 25 W/m2
06:31 59.4 °F /  15.2 °C 55.4 °F /  13 °C 29.9in /  1013.2hPa West 8.9mph /  14.3km/h 11mph /  17.7km/h 87% 0in /  0.0mm 30 W/m2
06:36 59.4 °F /  15.2 °C 55.4 °F /  13 °C 29.9in /  1013.2hPa West 2.9mph /  4.7km/h 12mph /  19.3km/h 87% 0in /  0.0mm 32 W/m2
06:42 59.4 °F /  15.2 °C 55.4 °F /  13 °C 29.9in /  1013.2hPa WNW 6.9mph /  11.1km/h 9mph /  14.5km/h 87% 0in /  0.0mm 37 W/m2
06:47 59.4 °F /  15.2 °C 55.8 °F /  13.2 °C 29.9in /  1013.2hPa West 6.9mph /  11.1km/h 8mph /  12.9km/h 88% 0in /  0.0mm 44 W/m2
06:52 59.2 °F /  15.1 °C 55.6 °F /  13.1 °C 29.9in /  1013.2hPa West 4mph /  6.4km/h 12mph /  19.3km/h 88% 0in /  0.0mm 49 W/m2
06:57 59.2 °F /  15.1 °C 55.6 °F /  13.1 °C 29.9in /  1013.2hPa WSW 4mph /  6.4km/h 8mph /  12.9km/h 88% 0in /  0.0mm 56 W/m2
07:02 59.2 °F /  15.1 °C 55.6 °F /  13.1 °C 29.9in /  1013.2hPa West 4mph /  6.4km/h 12mph /  19.3km/h 88% 0in /  0.0mm 62 W/m2
07:07 59.2 °F /  15.1 °C 55.6 °F /  13.1 °C 29.9in /  1013.2hPa NW 6.9mph /  11.1km/h 9mph /  14.5km/h 88% 0in /  0.0mm 67 W/m2
07:12 59.2 °F /  15.1 °C 55.6 °F /  13.1 °C 29.9in /  1013.2hPa West 14.1mph /  22.7km/h 16mph /  25.7km/h 88% 0in /  0.0mm 72 W/m2
07:17 59 °F /  15 °C 55.4 °F /  13 °C 29.9in /  1013.2hPa SW 6mph /  9.7km/h 11mph /  17.7km/h 88% 0in /  0.0mm 77 W/m2
07:22 59 °F /  15 °C 55.4 °F /  13 °C 29.9in /  1013.2hPa SW 4mph /  6.4km/h 16mph /  25.7km/h 88% 0in /  0.0mm 79 W/m2
07:27 59 °F /  15 °C 55.4 °F /  13 °C 29.9in /  1013.2hPa WNW 2mph /  3.2km/h 8mph /  12.9km/h 88% 0in /  0.0mm 84 W/m2
07:32 59 °F /  15 °C 55.4 °F /  13 °C 29.9in /  1013.5hPa WNW 4.9mph /  7.9km/h 10mph /  16.1km/h 88% 0in /  0.0mm 90 W/m2
07:37 59 °F /  15 °C 55.4 °F /  13 °C 29.9in /  1013.5hPa West 6mph /  9.7km/h 7mph /  11.3km/h 88% 0in /  0.0mm 93 W/m2
07:42 59 °F /  15 °C 55.8 °F /  13.2 °C 29.9in /  1013.5hPa WNW 2.9mph /  4.7km/h 6mph /  9.7km/h 89% 0in /  0.0mm 102 W/m2
07:47 59 °F /  15 °C 55.8 °F /  13.2 °C 29.9in /  1013.5hPa WNW 4.9mph /  7.9km/h 11mph /  17.7km/h 89% 0in /  0.0mm 109 W/m2
07:52 59 °F /  15 °C 55.8 °F /  13.2 °C 29.9in /  1013.5hPa West 4mph /  6.4km/h 4mph /  6.4km/h 89% 0in /  0.0mm 116 W/m2
07:57 59.2 °F /  15.1 °C 55.9 °F /  13.3 °C 29.9in /  1013.5hPa NNW 4.9mph /  7.9km/h 12mph /  19.3km/h 89% 0in /  0.0mm 127 W/m2
08:07 59.2 °F /  15.1 °C 55.6 °F /  13.1 °C 29.9in /  1013.9hPa SW 6mph /  9.7km/h 12mph /  19.3km/h 88% 0in /  0.0mm 144 W/m2
08:12 59.4 °F /  15.2 °C 56.1 °F /  13.4 °C 29.9in /  1013.9hPa NW 4mph /  6.4km/h 6mph /  9.7km/h 89% 0in /  0.0mm 144 W/m2
08:17 59.4 °F /  15.2 °C 56.1 °F /  13.4 °C 29.9in /  1013.9hPa WNW 2.9mph /  4.7km/h 8mph /  12.9km/h 89% 0in /  0.0mm 158 W/m2
08:22 59.5 °F /  15.3 °C 55.9 °F /  13.3 °C 29.9in /  1013.9hPa West 2mph /  3.2km/h 6mph /  9.7km/h 88% 0in /  0.0mm 181 W/m2
08:27 59.7 °F /  15.4 °C 56.5 °F /  13.6 °C 29.9in /  1013.9hPa West 8.9mph /  14.3km/h 9mph /  14.5km/h 89% 0in /  0.0mm 202 W/m2
08:32 59.9 °F /  15.5 °C 56.3 °F /  13.5 °C 29.9in /  1013.9hPa WNW 2mph /  3.2km/h 4mph /  6.4km/h 88% 0in /  0.0mm 209 W/m2
08:38 60.1 °F /  15.6 °C 56.5 °F /  13.6 °C 30in /  1014.2hPa WNW 2mph /  3.2km/h 9mph /  14.5km/h 88% 0in /  0.0mm 218 W/m2
08:43 60.3 °F /  15.7 °C 56.7 °F /  13.7 °C 30in /  1014.2hPa West 2mph /  3.2km/h 8mph /  12.9km/h 88% 0in /  0.0mm 225 W/m2
08:48 60.4 °F /  15.8 °C 56.8 °F /  13.8 °C 30in /  1014.2hPa West 2.9mph /  4.7km/h 9mph /  14.5km/h 88% 0in /  0.0mm 236 W/m2
08:53 60.4 °F /  15.8 °C 56.8 °F /  13.8 °C 30in /  1014.2hPa WNW 0.9mph /  1.4km/h 5mph /  8km/h 88% 0in /  0.0mm 244 W/m2
08:58 60.6 °F /  15.9 °C 57 °F /  13.9 °C 30in /  1014.6hPa WNW 2mph /  3.2km/h 3mph /  4.8km/h 88% 0in /  0.0mm 267 W/m2
09:03 60.8 °F /  16 °C 57.2 °F /  14 °C 30in /  1014.6hPa WNW 0.9mph /  1.4km/h 4mph /  6.4km/h 88% 0in /  0.0mm 267 W/m2
09:08 61 °F /  16.1 °C 57 °F /  13.9 °C 30in /  1014.6hPa WNW 2.9mph /  4.7km/h 4mph /  6.4km/h 87% 0in /  0.0mm 279 W/m2
09:13 61.2 °F /  16.2 °C 57.2 °F /  14 °C 30in /  1014.6hPa WSW 4.9mph /  7.9km/h 9mph /  14.5km/h 87% 0in /  0.0mm 290 W/m2
09:18 61.2 °F /  16.2 °C 57.2 °F /  14 °C 30in /  1014.6hPa NW 6mph /  9.7km/h 8mph /  12.9km/h 87% 0in /  0.0mm 260 W/m2
09:23 61.2 °F /  16.2 °C 57.2 °F /  14 °C 30in /  1014.6hPa NW 4.9mph /  7.9km/h 6mph /  9.7km/h 87% 0in /  0.0mm 250 W/m2
09:28 61.3 °F /  16.3 °C 57.4 °F /  14.1 °C 30in /  1014.9hPa SW 4mph /  6.4km/h 4mph /  6.4km/h 87% 0in /  0.0mm 241 W/m2
09:33 61.5 °F /  16.4 °C 57.4 °F /  14.1 °C 30in /  1014.9hPa WNW 4mph /  6.4km/h 4mph /  6.4km/h 86% 0in /  0.0mm 313 W/m2
09:38 61.5 °F /  16.4 °C 57.4 °F /  14.1 °C 30in /  1014.9hPa SW 4mph /  6.4km/h 4mph /  6.4km/h 86% 0in /  0.0mm 257 W/m2
09:43 61.7 °F /  16.5 °C 57.4 °F /  14.1 °C 30in /  1014.9hPa NW 0.9mph /  1.4km/h 4mph /  6.4km/h 86% 0in /  0.0mm 216 W/m2
09:48 61.7 °F /  16.5 °C 57.2 °F /  14 °C 30in /  1014.9hPa West 0.9mph /  1.4km/h 5mph /  8km/h 85% 0in /  0.0mm 197 W/m2
09:53 61.5 °F /  16.4 °C 57.4 °F /  14.1 °C 30in /  1014.9hPa WSW 2.9mph /  4.7km/h 5mph /  8km/h 86% 0in /  0.0mm 190 W/m2
09:58 61.7 °F /  16.5 °C 57.4 °F /  14.1 °C 30in /  1015.2hPa NNW 0.9mph /  1.4km/h 4mph /  6.4km/h 86% 0in /  0.0mm 185 W/m2
10:03 61.7 °F /  16.5 °C 57.4 °F /  14.1 °C 30in /  1015.2hPa WSW 2mph /  3.2km/h 6mph /  9.7km/h 86% 0in /  0.0mm 176 W/m2
10:08 61.7 °F /  16.5 °C 57.4 °F /  14.1 °C 30in /  1015.2hPa WNW 2.9mph /  4.7km/h 6mph /  9.7km/h 86% 0in /  0.0mm 199 W/m2
10:13 61.9 °F /  16.6 °C 57.6 °F /  14.2 °C 30in /  1015.2hPa WNW 2mph /  3.2km/h 4mph /  6.4km/h 86% 0in /  0.0mm 165 W/m2
10:19 61.9 °F /  16.6 °C 57.6 °F /  14.2 °C 30in /  1015.2hPa Calm   6mph /  9.7km/h 86% 0in /  0.0mm 183 W/m2
10:24 61.9 °F /  16.6 °C 57.6 °F /  14.2 °C 30in /  1015.2hPa WNW 4mph /  6.4km/h 4mph /  6.4km/h 86% 0in /  0.0mm 199 W/m2
10:29 62.1 °F /  16.7 °C 57.7 °F /  14.3 °C 30in /  1015.2hPa WNW 4mph /  6.4km/h 8mph /  12.9km/h 86% 0in /  0.0mm 211 W/m2
10:34 62.1 °F /  16.7 °C 57.7 °F /  14.3 °C 30in /  1015.2hPa Calm   4mph /  6.4km/h 86% 0in /  0.0mm 213 W/m2
10:39 62.1 °F /  16.7 °C 57.6 °F /  14.2 °C 30in /  1015.2hPa WNW 2mph /  3.2km/h 8mph /  12.9km/h 85% 0in /  0.0mm 206 W/m2
10:44 62.1 °F /  16.7 °C 57.6 °F /  14.2 °C 30in /  1015.2hPa WSW 4mph /  6.4km/h 4mph /  6.4km/h 85% 0in /  0.0mm 241 W/m2
10:49 62.2 °F /  16.8 °C 57.7 °F /  14.3 °C 30in /  1015.2hPa West 4mph /  6.4km/h 4mph /  6.4km/h 85% 0in /  0.0mm 236 W/m2
10:54 62.2 °F /  16.8 °C 57.7 °F /  14.3 °C 30in /  1015.2hPa NNW 4mph /  6.4km/h 5mph /  8km/h 85% 0in /  0.0mm 181 W/m2
10:59 62.4 °F /  16.9 °C 57.9 °F /  14.4 °C 30in /  1015.2hPa West 4mph /  6.4km/h 8mph /  12.9km/h 85% 0in /  0.0mm 262 W/m2
11:04 62.6 °F /  17 °C 58.1 °F /  14.5 °C 30in /  1015.2hPa West 2.9mph /  4.7km/h 3mph /  4.8km/h 85% 0in /  0.0mm 285 W/m2
11:09 62.8 °F /  17.1 °C 57.9 °F /  14.4 °C 30in /  1015.2hPa West 2.9mph /  4.7km/h 7mph /  11.3km/h 84% 0in /  0.0mm 174 W/m2
11:14 62.8 °F /  17.1 °C 57.9 °F /  14.4 °C 30in /  1015.6hPa WNW 4.9mph /  7.9km/h 7mph /  11.3km/h 84% 0in /  0.0mm 276 W/m2
11:19 62.8 °F /  17.1 °C 58.3 °F /  14.6 °C 30in /  1015.2hPa WNW 2.9mph /  4.7km/h 4mph /  6.4km/h 85% 0in /  0.0mm 248 W/m2
11:24 63 °F /  17.2 °C 58.1 °F /  14.5 °C 30in /  1015.2hPa NW 0.9mph /  1.4km/h 3mph /  4.8km/h 84% 0in /  0.0mm 171 W/m2
11:29 63.1 °F /  17.3 °C 58.3 °F /  14.6 °C 30in /  1015.6hPa WSW 2.9mph /  4.7km/h 4mph /  6.4km/h 84% 0in /  0.0mm 200 W/m2
11:34 63.1 °F /  17.3 °C 57.9 °F /  14.4 °C 30in /  1015.6hPa West 4mph /  6.4km/h 5mph /  8km/h 83% 0in /  0.0mm 156 W/m2
11:39 63.1 °F /  17.3 °C 57.6 °F /  14.2 °C 30in /  1015.6hPa WNW 2mph /  3.2km/h 3mph /  4.8km/h 82% 0in /  0.0mm 83 W/m2
11:49 63.1 °F /  17.3 °C 57.9 °F /  14.4 °C 30in /  1015.6hPa WSW 6.9mph /  11.1km/h 7mph /  11.3km/h 83% 0in /  0.0mm 272 W/m2
11:54 63.3 °F /  17.4 °C 57.7 °F /  14.3 °C 30in /  1015.6hPa West 2.9mph /  4.7km/h 6mph /  9.7km/h 82% 0in /  0.0mm 258 W/m2
11:59 63.5 °F /  17.5 °C 57.9 °F /  14.4 °C 30in /  1015.6hPa WNW 2.9mph /  4.7km/h 3mph /  4.8km/h 82% 0in /  0.0mm 193 W/m2
12:04 63.9 °F /  17.7 °C 58.3 °F /  14.6 °C 30in /  1015.6hPa WNW 2mph /  3.2km/h 4mph /  6.4km/h 82% 0in /  0.0mm 241 W/m2
12:09 64 °F /  17.8 °C 58.1 °F /  14.5 °C 30in /  1015.6hPa West 2.9mph /  4.7km/h 7mph /  11.3km/h 81% 0in /  0.0mm 322 W/m2
12:14 64 °F /  17.8 °C 58.1 °F /  14.5 °C 30in /  1015.6hPa West 4mph /  6.4km/h 6mph /  9.7km/h 81% 0in /  0.0mm 229 W/m2
12:19 64.2 °F /  17.9 °C 58.3 °F /  14.6 °C 30in /  1015.6hPa NW 2.9mph /  4.7km/h 5mph /  8km/h 81% 0in /  0.0mm 241 W/m2
12:24 64.4 °F /  18 °C 58.5 °F /  14.7 °C 30in /  1015.6hPa WNW 2mph /  3.2km/h 4mph /  6.4km/h 81% 0in /  0.0mm 434 W/m2
12:29 64.8 °F /  18.2 °C 58.5 °F /  14.7 °C 30in /  1015.6hPa WNW 2mph /  3.2km/h 4mph /  6.4km/h 80% 0in /  0.0mm 403 W/m2
12:34 64.9 °F /  18.3 °C 58.3 °F /  14.6 °C 30in /  1015.6hPa West 2mph /  3.2km/h 4mph /  6.4km/h 79% 0in /  0.0mm 313 W/m2
12:39 65.1 °F /  18.4 °C 58.5 °F /  14.7 °C 30in /  1015.6hPa West 2mph /  3.2km/h 6mph /  9.7km/h 79% 0in /  0.0mm 244 W/m2
12:44 65.1 °F /  18.4 °C 58.1 °F /  14.5 °C 30in /  1015.6hPa WNW 2.9mph /  4.7km/h 6mph /  9.7km/h 78% 0in /  0.0mm 264 W/m2
12:49 64.9 °F /  18.3 °C 57.9 °F /  14.4 °C 30in /  1015.6hPa NW 2mph /  3.2km/h 5mph /  8km/h 78% 0in /  0.0mm 269 W/m2
12:54 64.9 °F /  18.3 °C 58.3 °F /  14.6 °C 30in /  1015.6hPa NNW 2.9mph /  4.7km/h 6mph /  9.7km/h 79% 0in /  0.0mm 223 W/m2
12:59 65.1 °F /  18.4 °C 58.1 °F /  14.5 °C 30in /  1015.2hPa NW 4.9mph /  7.9km/h 5mph /  8km/h 78% 0in /  0.0mm 276 W/m2
13:04 65.1 °F /  18.4 °C 58.5 °F /  14.7 °C 30in /  1015.6hPa West 0.9mph /  1.4km/h 3mph /  4.8km/h 79% 0in /  0.0mm 394 W/m2
13:09 65.7 °F /  18.7 °C 59 °F /  15 °C 30in /  1015.2hPa WNW 6mph /  9.7km/h 7mph /  11.3km/h 79% 0in /  0.0mm 519 W/m2
13:14 65.8 °F /  18.8 °C 58.8 °F /  14.9 °C 30in /  1015.6hPa WNW 2.9mph /  4.7km/h 8mph /  12.9km/h 78% 0in /  0.0mm 455 W/m2
13:19 66.4 °F /  19.1 °C 59 °F /  15 °C 30in /  1015.2hPa WNW 2.9mph /  4.7km/h 3mph /  4.8km/h 77% 0in /  0.0mm 550 W/m2
13:24 66.7 °F /  19.3 °C 59 °F /  15 °C 30in /  1015.2hPa West 2mph /  3.2km/h 4mph /  6.4km/h 76% 0in /  0.0mm 482 W/m2
13:29 67.3 °F /  19.6 °C 58.6 °F /  14.8 °C 30in /  1015.2hPa WNW 2mph /  3.2km/h 7mph /  11.3km/h 74% 0in /  0.0mm 520 W/m2
13:34 67.6 °F /  19.8 °C 58.6 °F /  14.8 °C 30in /  1015.2hPa WSW 0.9mph /  1.4km/h 4mph /  6.4km/h 73% 0in /  0.0mm 526 W/m2
13:39 67.6 °F /  19.8 °C 58.6 °F /  14.8 °C 30in /  1015.2hPa NW 0.9mph /  1.4km/h 4mph /  6.4km/h 73% 0in /  0.0mm 510 W/m2
13:44 67.8 °F /  19.9 °C 58.5 °F /  14.7 °C 30in /  1015.2hPa West 2mph /  3.2km/h 7mph /  11.3km/h 72% 0in /  0.0mm 844 W/m2
13:49 68.4 °F /  20.2 °C 59 °F /  15 °C 30in /  1015.2hPa North 2mph /  3.2km/h 7mph /  11.3km/h 72% 0in /  0.0mm 343 W/m2
13:54 68.2 °F /  20.1 °C 58.8 °F /  14.9 °C 30in /  1015.2hPa North 2mph /  3.2km/h 4mph /  6.4km/h 72% 0in /  0.0mm 250 W/m2
13:59 67.8 °F /  19.9 °C 58.5 °F /  14.7 °C 30in /  1015.2hPa NNW 4mph /  6.4km/h 7mph /  11.3km/h 72% 0in /  0.0mm 283 W/m2
14:04 67.6 °F /  19.8 °C 57.9 °F /  14.4 °C 30in /  1015.2hPa WNW 0.9mph /  1.4km/h 7mph /  11.3km/h 71% 0in /  0.0mm 309 W/m2
14:09 67.6 °F /  19.8 °C 58.3 °F /  14.6 °C 30in /  1015.2hPa WNW 0.9mph /  1.4km/h 6mph /  9.7km/h 72% 0in /  0.0mm 334 W/m2
14:15 67.6 °F /  19.8 °C 57.9 °F /  14.4 °C 30in /  1015.2hPa NNW 4mph /  6.4km/h 7mph /  11.3km/h 71% 0in /  0.0mm 338 W/m2
14:20 67.8 °F /  19.9 °C 58.1 °F /  14.5 °C 30in /  1015.2hPa WSW 4mph /  6.4km/h 8mph /  12.9km/h 71% 0in /  0.0mm 392 W/m2
14:25 68.2 °F /  20.1 °C 58.5 °F /  14.7 °C 30in /  1015.2hPa NW 4.9mph /  7.9km/h 5mph /  8km/h 71% 0in /  0.0mm 457 W/m2
14:30 68.4 °F /  20.2 °C 57.7 °F /  14.3 °C 30in /  1015.2hPa WSW 2.9mph /  4.7km/h 9mph /  14.5km/h 69% 0in /  0.0mm 434 W/m2
14:35 68.5 °F /  20.3 °C 57.6 °F /  14.2 °C 30in /  1015.2hPa SW 2mph /  3.2km/h 5mph /  8km/h 68% 0in /  0.0mm 345 W/m2
14:40 68.5 °F /  20.3 °C 58.3 °F /  14.6 °C 30in /  1015.2hPa WNW 2.9mph /  4.7km/h 6mph /  9.7km/h 70% 0in /  0.0mm 302 W/m2
14:45 68.5 °F /  20.3 °C 58.3 °F /  14.6 °C 30in /  1015.2hPa WNW 2.9mph /  4.7km/h 6mph /  9.7km/h 70% 0in /  0.0mm 371 W/m2
14:50 68.7 °F /  20.4 °C 58.5 °F /  14.7 °C 30in /  1015.2hPa NNW 2.9mph /  4.7km/h 3mph /  4.8km/h 70% 0in /  0.0mm 489 W/m2
14:55 68.9 °F /  20.5 °C 58.3 °F /  14.6 °C 30in /  1015.2hPa WNW 0.9mph /  1.4km/h 4mph /  6.4km/h 69% 0in /  0.0mm 380 W/m2
15:00 69.1 °F /  20.6 °C 58.5 °F /  14.7 °C 30in /  1015.2hPa West 6mph /  9.7km/h 6mph /  9.7km/h 69% 0in /  0.0mm 422 W/m2
15:05 69.1 °F /  20.6 °C 58.5 °F /  14.7 °C 30in /  1015.2hPa WNW 4.9mph /  7.9km/h 10mph /  16.1km/h 69% 0in /  0.0mm 468 W/m2
15:15 68.7 °F /  20.4 °C 58.1 °F /  14.5 °C 30in /  1014.9hPa WNW 4mph /  6.4km/h 7mph /  11.3km/h 69% 0in /  0.0mm 432 W/m2
15:20 68.9 °F /  20.5 °C 58.6 °F /  14.8 °C 30in /  1014.9hPa North 4mph /  6.4km/h 6mph /  9.7km/h 70% 0in /  0.0mm 454 W/m2
15:25 69.3 °F /  20.7 °C 58.3 °F /  14.6 °C 30in /  1014.9hPa West 0.9mph /  1.4km/h 4mph /  6.4km/h 68% 0in /  0.0mm 475 W/m2
15:30 69.4 °F /  20.8 °C 58.5 °F /  14.7 °C 30in /  1014.9hPa WNW 2.9mph /  4.7km/h 5mph /  8km/h 68% 0in /  0.0mm 534 W/m2
15:35 69.4 °F /  20.8 °C 58.5 °F /  14.7 °C 30in /  1015.2hPa SW 6mph /  9.7km/h 9mph /  14.5km/h 68% 0in /  0.0mm 482 W/m2
15:41 69.4 °F /  20.8 °C 58.5 °F /  14.7 °C 30in /  1014.9hPa NW 2.9mph /  4.7km/h 7mph /  11.3km/h 68% 0in /  0.0mm 401 W/m2
15:46 69.3 °F /  20.7 °C 58.3 °F /  14.6 °C 30in /  1015.2hPa WNW 2mph /  3.2km/h 4mph /  6.4km/h 68% 0in /  0.0mm 403 W/m2
15:51 69.3 °F /  20.7 °C 58.3 °F /  14.6 °C 30in /  1015.2hPa WSW 8.1mph /  13km/h 8mph /  12.9km/h 68% 0in /  0.0mm 404 W/m2
15:56 69.1 °F /  20.6 °C 58.8 °F /  14.9 °C 30in /  1015.2hPa NW 2mph /  3.2km/h 3mph /  4.8km/h 70% 0in /  0.0mm 415 W/m2
16:01 69.1 °F /  20.6 °C 58.1 °F /  14.5 °C 30in /  1014.9hPa WNW 4.9mph /  7.9km/h 9mph /  14.5km/h 68% 0in /  0.0mm 399 W/m2
16:06 68.9 °F /  20.5 °C 57.9 °F /  14.4 °C 30in /  1015.2hPa WNW 4.9mph /  7.9km/h 12mph /  19.3km/h 68% 0in /  0.0mm 350 W/m2
16:11 68.7 °F /  20.4 °C 58.1 °F /  14.5 °C 30in /  1015.2hPa WSW 6.9mph /  11.1km/h 9mph /  14.5km/h 69% 0in /  0.0mm 323 W/m2
16:16 68.5 °F /  20.3 °C 57.6 °F /  14.2 °C 30in /  1014.9hPa WNW 4.9mph /  7.9km/h 12mph /  19.3km/h 68% 0in /  0.0mm 318 W/m2
16:21 68.5 °F /  20.3 °C 57.6 °F /  14.2 °C 30in /  1014.9hPa NW 2mph /  3.2km/h 4mph /  6.4km/h 68% 0in /  0.0mm 316 W/m2
16:26 68.5 °F /  20.3 °C 56.7 °F /  13.7 °C 30in /  1014.9hPa NW 2.9mph /  4.7km/h 10mph /  16.1km/h 66% 0in /  0.0mm 345 W/m2
16:31 68.9 °F /  20.5 °C 57.9 °F /  14.4 °C 30in /  1014.9hPa West 2mph /  3.2km/h 7mph /  11.3km/h 68% 0in /  0.0mm 394 W/m2
16:36 69.1 °F /  20.6 °C 57.7 °F /  14.3 °C 30in /  1014.9hPa WNW 6.9mph /  11.1km/h 7mph /  11.3km/h 67% 0in /  0.0mm 367 W/m2
16:41 69.1 °F /  20.6 °C 57.7 °F /  14.3 °C 30in /  1014.9hPa West 4mph /  6.4km/h 12mph /  19.3km/h 67% 0in /  0.0mm 392 W/m2
16:46 68.9 °F /  20.5 °C 57.6 °F /  14.2 °C 30in /  1014.9hPa West 6.9mph /  11.1km/h 12mph /  19.3km/h 67% 0in /  0.0mm 338 W/m2
16:51 68.7 °F /  20.4 °C 57.7 °F /  14.3 °C 30in /  1014.9hPa West 2.9mph /  4.7km/h 8mph /  12.9km/h 68% 0in /  0.0mm 327 W/m2
16:56 68.7 °F /  20.4 °C 57.7 °F /  14.3 °C 30in /  1014.6hPa WNW 4mph /  6.4km/h 12mph /  19.3km/h 68% 0in /  0.0mm 320 W/m2
17:01 68.7 °F /  20.4 °C 57.7 °F /  14.3 °C 30in /  1014.9hPa WNW 2mph /  3.2km/h 4mph /  6.4km/h 68% 0in /  0.0mm 297 W/m2
17:06 68.7 °F /  20.4 °C 58.1 °F /  14.5 °C 30in /  1014.9hPa WSW 4mph /  6.4km/h 7mph /  11.3km/h 69% 0in /  0.0mm 264 W/m2
17:11 68.7 °F /  20.4 °C 58.1 °F /  14.5 °C 30in /  1014.9hPa West 2.9mph /  4.7km/h 7mph /  11.3km/h 69% 0in /  0.0mm 257 W/m2
17:16 68.5 °F /  20.3 °C 57.6 °F /  14.2 °C 30in /  1014.9hPa West 6mph /  9.7km/h 7mph /  11.3km/h 68% 0in /  0.0mm 246 W/m2
17:21 68.5 °F /  20.3 °C 57.6 °F /  14.2 °C 30in /  1014.9hPa WSW 4.9mph /  7.9km/h 7mph /  11.3km/h 68% 0in /  0.0mm 232 W/m2
17:26 68.5 °F /  20.3 °C 57.9 °F /  14.4 °C 30in /  1014.9hPa West 4mph /  6.4km/h 9mph /  14.5km/h 69% 0in /  0.0mm 214 W/m2
17:31 68.4 °F /  20.2 °C 57.4 °F /  14.1 °C 30in /  1014.9hPa West 8.9mph /  14.3km/h 10mph /  16.1km/h 68% 0in /  0.0mm 190 W/m2
17:36 68.2 °F /  20.1 °C 56.3 °F /  13.5 °C 30in /  1014.9hPa West 2.9mph /  4.7km/h 8mph /  12.9km/h 66% 0in /  0.0mm 172 W/m2
17:41 68.2 °F /  20.1 °C 56.3 °F /  13.5 °C 30in /  1014.9hPa WNW 6mph /  9.7km/h 8mph /  12.9km/h 66% 0in /  0.0mm 169 W/m2
17:46 68.2 °F /  20.1 °C 56.8 °F /  13.8 °C 30in /  1014.9hPa West 4mph /  6.4km/h 6mph /  9.7km/h 67% 0in /  0.0mm 163 W/m2
17:51 68 °F /  20 °C 56.3 °F /  13.5 °C 30in /  1014.9hPa West 6mph /  9.7km/h 8mph /  12.9km/h 66% 0in /  0.0mm 149 W/m2
17:56 68 °F /  20 °C 56.7 °F /  13.7 °C 30in /  1014.9hPa WNW 2mph /  3.2km/h 3mph /  4.8km/h 67% 0in /  0.0mm 135 W/m2
18:01 67.8 °F /  19.9 °C 56.5 °F /  13.6 °C 30in /  1014.9hPa WNW 2mph /  3.2km/h 7mph /  11.3km/h 67% 0in /  0.0mm 132 W/m2
18:06 67.8 °F /  19.9 °C 56.1 °F /  13.4 °C 30in /  1014.6hPa West 2.9mph /  4.7km/h 6mph /  9.7km/h 66% 0in /  0.0mm 127 W/m2
18:11 67.6 °F /  19.8 °C 56.3 °F /  13.5 °C 30in /  1014.9hPa West 4mph /  6.4km/h 7mph /  11.3km/h 67% 0in /  0.0mm 120 W/m2
18:16 67.6 °F /  19.8 °C 56.3 °F /  13.5 °C 30in /  1014.9hPa West 2.9mph /  4.7km/h 4mph /  6.4km/h 67% 0in /  0.0mm 109 W/m2
18:21 67.5 °F /  19.7 °C 56.1 °F /  13.4 °C 30in /  1014.9hPa West 0.9mph /  1.4km/h 4mph /  6.4km/h 67% 0in /  0.0mm 97 W/m2
18:26 67.5 °F /  19.7 °C 56.1 °F /  13.4 °C 30in /  1014.9hPa West 2.9mph /  4.7km/h 4mph /  6.4km/h 67% 0in /  0.0mm 90 W/m2
18:31 67.5 °F /  19.7 °C 56.5 °F /  13.6 °C 30in /  1014.9hPa West 0.9mph /  1.4km/h 6mph /  9.7km/h 68% 0in /  0.0mm 88 W/m2
18:37 67.3 °F /  19.6 °C 56.3 °F /  13.5 °C 30in /  1014.9hPa WSW 4mph /  6.4km/h 7mph /  11.3km/h 68% 0in /  0.0mm 84 W/m2
18:42 67.3 °F /  19.6 °C 56.3 °F /  13.5 °C 30in /  1014.9hPa Calm   3mph /  4.8km/h 68% 0in /  0.0mm 79 W/m2
18:47 67.3 °F /  19.6 °C 56.3 °F /  13.5 °C 30in /  1014.9hPa NW 2.9mph /  4.7km/h 3mph /  4.8km/h 68% 0in /  0.0mm 74 W/m2
18:52 67.1 °F /  19.5 °C 56.7 °F /  13.7 °C 30in /  1014.9hPa WNW 2mph /  3.2km/h 3mph /  4.8km/h 69% 0in /  0.0mm 77 W/m2
18:57 66.9 °F /  19.4 °C 56.5 °F /  13.6 °C 30in /  1014.9hPa West 2.9mph /  4.7km/h 4mph /  6.4km/h 69% 0in /  0.0mm 77 W/m2
19:02 66.9 °F /  19.4 °C 56.8 °F /  13.8 °C 30in /  1014.9hPa West 6.9mph /  11.1km/h 7mph /  11.3km/h 70% 0in /  0.0mm 72 W/m2
19:07 66.9 °F /  19.4 °C 56.8 °F /  13.8 °C 30in /  1014.9hPa NNW 0.9mph /  1.4km/h 4mph /  6.4km/h 70% 0in /  0.0mm 70 W/m2
19:12 66.7 °F /  19.3 °C 56.3 °F /  13.5 °C 30in /  1014.9hPa WNW 5mph /  8km/h 5mph /  8km/h 69% 0in /  0.0mm 67 W/m2
19:17 66.6 °F /  19.2 °C 56.5 °F /  13.6 °C 30in /  1014.9hPa WNW 2mph /  3.2km/h 4mph /  6.4km/h 70% 0in /  0.0mm 67 W/m2
19:22 66.6 °F /  19.2 °C 56.5 °F /  13.6 °C 30in /  1014.9hPa West 2.9mph /  4.7km/h 3mph /  4.8km/h 70% 0in /  0.0mm 65 W/m2
19:27 66.4 °F /  19.1 °C 56.7 °F /  13.7 °C 30in /  1014.9hPa West 2mph /  3.2km/h 3mph /  4.8km/h 71% 0in /  0.0mm 60 W/m2
19:32 66.4 °F /  19.1 °C 56.7 °F /  13.7 °C 30in /  1014.9hPa West 2.9mph /  4.7km/h 3mph /  4.8km/h 71% 0in /  0.0mm 56 W/m2
19:37 66.4 °F /  19.1 °C 56.7 °F /  13.7 °C 30in /  1014.9hPa WNW 2.9mph /  4.7km/h 4mph /  6.4km/h 71% 0in /  0.0mm 53 W/m2
19:42 66.2 °F /  19 °C 56.5 °F /  13.6 °C 30in /  1014.9hPa West 0.9mph /  1.4km/h 2mph /  3.2km/h 71% 0in /  0.0mm 54 W/m2
19:47 66.2 °F /  19 °C 56.8 °F /  13.8 °C 30in /  1014.9hPa WNW 2mph /  3.2km/h 3mph /  4.8km/h 72% 0in /  0.0mm 58 W/m2
19:52 66 °F /  18.9 °C 56.7 °F /  13.7 °C 30in /  1015.2hPa WNW 2mph /  3.2km/h 3mph /  4.8km/h 72% 0in /  0.0mm 63 W/m2
19:57 66 °F /  18.9 °C 57.2 °F /  14 °C 30in /  1015.2hPa West 0.9mph /  1.4km/h 4mph /  6.4km/h 73% 0in /  0.0mm 63 W/m2
20:02 66 °F /  18.9 °C 57.2 °F /  14 °C 30in /  1015.2hPa West 2mph /  3.2km/h 3mph /  4.8km/h 73% 0in /  0.0mm 62 W/m2
20:07 66 °F /  18.9 °C 57.6 °F /  14.2 °C 30in /  1015.2hPa West 2.9mph /  4.7km/h 3mph /  4.8km/h 74% 0in /  0.0mm 58 W/m2
20:12 65.8 °F /  18.8 °C 57 °F /  13.9 °C 30in /  1015.2hPa WNW 2mph /  3.2km/h 4mph /  6.4km/h 73% 0in /  0.0mm 54 W/m2
20:17 65.8 °F /  18.8 °C 57.4 °F /  14.1 °C 30in /  1015.2hPa WNW 2.9mph /  4.7km/h 7mph /  11.3km/h 74% 0in /  0.0mm 51 W/m2
20:22 65.8 °F /  18.8 °C 57.4 °F /  14.1 °C 30in /  1015.2hPa West 2.9mph /  4.7km/h 3mph /  4.8km/h 74% 0in /  0.0mm 47 W/m2
20:27 65.7 °F /  18.7 °C 57.6 °F /  14.2 °C 30in /  1015.2hPa West 2.9mph /  4.7km/h 7mph /  11.3km/h 75% 0in /  0.0mm 44 W/m2
20:32 65.7 °F /  18.7 °C 57.6 °F /  14.2 °C 30in /  1015.2hPa West 2mph /  3.2km/h 2mph /  3.2km/h 75% 0in /  0.0mm 44 W/m2
20:37 65.7 °F /  18.7 °C 57.9 °F /  14.4 °C 30in /  1015.2hPa West 4mph /  6.4km/h 4mph /  6.4km/h 76% 0in /  0.0mm 40 W/m2
20:42 65.5 °F /  18.6 °C 57.7 °F /  14.3 °C 30in /  1015.2hPa West 0.9mph /  1.4km/h 4mph /  6.4km/h 76% 0in /  0.0mm 33 W/m2
20:47 65.3 °F /  18.5 °C 57.6 °F /  14.2 °C 30in /  1015.2hPa West 0.9mph /  1.4km/h 3mph /  4.8km/h 76% 0in /  0.0mm 28 W/m2
20:52 65.1 °F /  18.4 °C 57.4 °F /  14.1 °C 30in /  1015.2hPa WSW 2mph /  3.2km/h 3mph /  4.8km/h 76% 0in /  0.0mm 23 W/m2
20:57 65.1 °F /  18.4 °C 57.4 °F /  14.1 °C 30in /  1015.2hPa West 2mph /  3.2km/h 4mph /  6.4km/h 76% 0in /  0.0mm 19 W/m2
21:02 64.9 °F /  18.3 °C 57.6 °F /  14.2 °C 30in /  1015.2hPa West 2mph /  3.2km/h 2mph /  3.2km/h 77% 0in /  0.0mm 16 W/m2
21:07 64.9 °F /  18.3 °C 57.6 °F /  14.2 °C 30in /  1015.2hPa West 2mph /  3.2km/h 4mph /  6.4km/h 77% 0in /  0.0mm 12 W/m2
21:12 64.8 °F /  18.2 °C 57.4 °F /  14.1 °C 30in /  1015.2hPa West 2.9mph /  4.7km/h 4mph /  6.4km/h 77% 0in /  0.0mm 11 W/m2
21:17 64.6 °F /  18.1 °C 57.6 °F /  14.2 °C 30in /  1015.2hPa West 0.9mph /  1.4km/h 2mph /  3.2km/h 78% 0in /  0.0mm 7 W/m2
21:22 64.4 °F /  18 °C 57.4 °F /  14.1 °C 30in /  1015.2hPa SW 2mph /  3.2km/h 3mph /  4.8km/h 78% 0in /  0.0mm 7 W/m2
21:27 64.2 °F /  17.9 °C 57.2 °F /  14 °C 30in /  1015.2hPa SW 0.9mph /  1.4km/h 1mph /  1.6km/h 78% 0in /  0.0mm 5 W/m2
21:32 64.2 °F /  17.9 °C 57.2 °F /  14 °C 30in /  1015.6hPa WSW 0.9mph /  1.4km/h 4mph /  6.4km/h 78% 0in /  0.0mm 0 W/m2
21:37 64 °F /  17.8 °C 57 °F /  13.9 °C 30in /  1015.6hPa Calm   2mph /  3.2km/h 78% 0in /  0.0mm 0 W/m2
21:42 63.9 °F /  17.7 °C 56.8 °F /  13.8 °C 30in /  1015.6hPa Calm   4mph /  6.4km/h 78% 0in /  0.0mm 0 W/m2
21:48 63.9 °F /  17.7 °C 56.5 °F /  13.6 °C 30in /  1015.6hPa West 0.9mph /  1.4km/h 4mph /  6.4km/h 77% 0in /  0.0mm 0 W/m2
21:53 63.9 °F /  17.7 °C 56.5 °F /  13.6 °C 30in /  1015.9hPa West 0.9mph /  1.4km/h 2mph /  3.2km/h 77% 0in /  0.0mm 0 W/m2
21:58 63.9 °F /  17.7 °C 56.8 °F /  13.8 °C 30in /  1015.9hPa Calm   3mph /  4.8km/h 78% 0in /  0.0mm 0 W/m2
22:03 63.7 °F /  17.6 °C 56.7 °F /  13.7 °C 30in /  1015.9hPa West 0.9mph /  1.4km/h 2mph /  3.2km/h 78% 0in /  0.0mm 0 W/m2
22:08 63.7 °F /  17.6 °C 56.7 °F /  13.7 °C 30in /  1015.9hPa Calm   3mph /  4.8km/h 78% 0in /  0.0mm 0 W/m2
22:13 63.5 °F /  17.5 °C 56.5 °F /  13.6 °C 30in /  1015.9hPa WSW 0.9mph /  1.4km/h 2mph /  3.2km/h 78% 0in /  0.0mm 0 W/m2
22:18 63.3 °F /  17.4 °C 56.7 °F /  13.7 °C 30in /  1015.9hPa Calm   2mph /  3.2km/h 79% 0in /  0.0mm 0 W/m2
22:23 63.1 °F /  17.3 °C 56.5 °F /  13.6 °C 30in /  1015.9hPa Calm     79% 0in /  0.0mm 0 W/m2
22:28 63 °F /  17.2 °C 56.7 °F /  13.7 °C 30in /  1015.9hPa Calm   2mph /  3.2km/h 80% 0in /  0.0mm 0 W/m2
22:33 62.8 °F /  17.1 °C 56.5 °F /  13.6 °C 30in /  1015.9hPa Calm     80% 0in /  0.0mm 0 W/m2
22:38 62.6 °F /  17 °C 56.7 °F /  13.7 °C 30in /  1015.9hPa Calm     81% 0in /  0.0mm 0 W/m2
22:43 62.2 °F /  16.8 °C 56.7 °F /  13.7 °C 30in /  1015.9hPa Calm     82% 0in /  0.0mm 0 W/m2
22:48 62.1 °F /  16.7 °C 56.5 °F /  13.6 °C 30in /  1015.9hPa Calm     82% 0in /  0.0mm 0 W/m2
22:53 61.9 °F /  16.6 °C 56.7 °F /  13.7 °C 30in /  1015.9hPa Calm     83% 0in /  0.0mm 0 W/m2
22:58 61.7 °F /  16.5 °C 56.5 °F /  13.6 °C 30in /  1015.9hPa Calm     83% 0in /  0.0mm 0 W/m2
23:03 61.5 °F /  16.4 °C 56.7 °F /  13.7 °C 30in /  1015.9hPa Calm     84% 0in /  0.0mm 0 W/m2
23:08 61.3 °F /  16.3 °C 56.8 °F /  13.8 °C 30in /  1015.9hPa Calm     85% 0in /  0.0mm 0 W/m2
23:13 61.2 °F /  16.2 °C 56.7 °F /  13.7 °C 30in /  1015.9hPa Calm     85% 0in /  0.0mm 0 W/m2
23:18 61 °F /  16.1 °C 56.8 °F /  13.8 °C 30in /  1015.9hPa Calm     86% 0in /  0.0mm 0 W/m2
23:23 61 °F /  16.1 °C 56.8 °F /  13.8 °C 30in /  1015.9hPa West 0.9mph /  1.4km/h 3mph /  4.8km/h 86% 0in /  0.0mm 0 W/m2
23:28 61 °F /  16.1 °C 56.8 °F /  13.8 °C 30in /  1015.9hPa West 2.9mph /  4.7km/h 3mph /  4.8km/h 86% 0in /  0.0mm 0 W/m2
23:33 61.3 °F /  16.3 °C 56.8 °F /  13.8 °C 30in /  1016.3hPa West 0.9mph /  1.4km/h 4mph /  6.4km/h 85% 0in /  0.0mm 0 W/m2
23:38 61.5 °F /  16.4 °C 56.7 °F /  13.7 °C 30in /  1015.9hPa WSW 2mph /  3.2km/h 4mph /  6.4km/h 84% 0in /  0.0mm 0 W/m2
23:43 61.9 °F /  16.6 °C 56.7 °F /  13.7 °C 30in /  1015.9hPa WNW 0.9mph /  1.4km/h 2mph /  3.2km/h 83% 0in /  0.0mm 0 W/m2
23:48 62.1 °F /  16.7 °C 56.8 °F /  13.8 °C 30in /  1015.9hPa Calm   4mph /  6.4km/h 83% 0in /  0.0mm 0 W/m2
23:53 62.2 °F /  16.8 °C 56.7 °F /  13.7 °C 30in /  1015.9hPa West 2.9mph /  4.7km/h 4mph /  6.4km/h 82% 0in /  0.0mm 0 W/m2
23:58 62.2 °F /  16.8 °C 56.3 °F /  13.5 °C 30in /  1016.3hPa West 2.9mph /  4.7km/h 5mph /  8km/h 81% 0in /  0.0mm 0 W/m2
Juneau County Weather
Compliments of Weather Underground - 2 mb